Time;durP1;ratioP1;P1;durP2;ratioP2;P2;SDS_P1;SDS_P2;PMS_P1;PMS_P2;Temp;Humidity;BMP_temperature;BMP_pressure;BME280_temperature;BME280_humidity;BME280_pressure;Samples;Min_cycle;Max_cycle;Signal;HPM_P1;HPM_P2
2023/11/12 00:00:46;;;;;;;9.20;7.93;;;7.00;50.40;;;;;;5102465;27;20024;-84
2023/11/12 00:03:12;;;;;;;7.78;6.68;;;7.00;47.70;;;;;;5121106;27;20030;-83
2023/11/12 00:05:38;;;;;;;6.63;5.80;;;7.00;44.20;;;;;;5106218;27;20118;-83
2023/11/12 00:08:04;;;;;;;5.88;5.35;;;7.00;44.60;;;;;;5106882;27;20111;-84
2023/11/12 00:10:31;;;;;;;5.95;5.47;;;7.00;35.10;;;;;;5122049;27;20020;-82
2023/11/12 00:12:56;;;;;;;7.65;6.00;;;7.00;26.40;;;;;;5104858;27;20382;-82
2023/11/12 00:15:22;;;;;;;8.55;6.43;;;7.00;21.70;;;;;;5123609;27;20075;-83
2023/11/12 00:17:48;;;;;;;7.18;5.93;;;7.00;24.80;;;;;;5121357;27;20023;-83
2023/11/12 00:20:14;;;;;;;7.65;6.22;;;7.10;25.90;;;;;;5117898;27;20068;-83
2023/11/12 00:22:43;;;;;;;6.57;5.90;;;7.10;26.40;;;;;;5123816;27;20023;-83
2023/11/12 00:25:13;;;;;;;5.80;5.25;;;7.00;30.90;;;;;;5105400;27;20031;-84
2023/11/12 00:27:42;;;;;;;6.80;6.15;;;7.00;29.10;;;;;;5120860;27;20027;-83
2023/11/12 00:30:09;;;;;;;6.30;5.70;;;7.00;31.10;;;;;;5121392;27;20028;-84
2023/11/12 00:32:35;;;;;;;6.13;5.35;;;7.10;21.60;;;;;;5104468;27;20371;-83
2023/11/12 00:35:00;;;;;;;5.93;5.32;;;7.10;1.00;;;;;;5121811;27;20023;-83
2023/11/12 00:37:26;;;;;;;5.38;4.78;;;7.10;1.00;;;;;;5120597;27;20506;-83
2023/11/12 00:39:52;;;;;;;5.88;5.30;;;7.10;1.00;;;;;;5123797;27;20453;-83
2023/11/12 00:42:18;;;;;;;6.13;5.53;;;7.10;1.00;;;;;;5122277;27;20026;-83
2023/11/12 00:44:45;;;;;;;7.45;6.65;;;7.20;1.00;;;;;;5122231;27;20049;-84
2023/11/12 00:47:11;;;;;;;7.80;5.97;;;7.30;1.00;;;;;;5123956;27;20029;-84
2023/11/12 00:49:37;;;;;;;6.20;5.70;;;7.40;1.00;;;;;;5120074;27;20031;-84
2023/11/12 00:52:03;;;;;;;6.38;5.78;;;7.40;1.00;;;;;;5120247;28;20541;-83
2023/11/12 00:54:30;;;;;;;5.15;4.70;;;7.30;1.00;;;;;;5104133;28;20024;-83
2023/11/12 00:56:55;;;;;;;5.82;5.10;;;7.20;1.00;;;;;;5121738;28;20083;-84
2023/11/12 00:59:21;;;;;;;8.23;5.57;;;7.20;1.00;;;;;;5122742;28;20109;-82
2023/11/12 01:01:47;;;;;;;7.32;5.90;;;7.20;3.70;;;;;;5123984;28;20597;-84
2023/11/12 01:04:15;;;;;;;8.60;6.40;;;7.20;1.00;;;;;;5121992;28;20558;-84
2023/11/12 01:06:41;;;;;;;6.18;5.65;;;7.20;5.40;;;;;;5103709;28;20034;-83
2023/11/12 01:09:10;;;;;;;9.95;5.80;;;7.20;12.00;;;;;;5123804;28;20028;-83
2023/11/12 01:11:37;;;;;;;8.30;6.72;;;7.20;7.50;;;;;;5099395;28;20055;-84
2023/11/12 01:14:03;;;;;;;6.90;6.18;;;7.20;5.40;;;;;;5122617;28;20023;-83
2023/11/12 01:16:29;;;;;;;8.93;7.50;;;7.20;4.70;;;;;;5104736;28;20467;-83
2023/11/12 01:18:58;;;;;;;8.50;7.18;;;7.10;13.90;;;;;;5121105;28;20032;-84
2023/11/12 01:21:25;;;;;;;9.85;7.53;;;7.10;24.60;;;;;;5117853;28;20023;-84
2023/11/12 01:23:51;;;;;;;7.18;6.47;;;7.00;25.20;;;;;;5122144;28;20028;-84
2023/11/12 01:26:16;;;;;;;7.50;6.80;;;7.00;21.70;;;;;;5122897;28;20027;-82
2023/11/12 01:28:42;;;;;;;7.43;6.72;;;7.00;13.50;;;;;;5106365;28;20027;-83
2023/11/12 01:31:08;;;;;;;8.32;6.43;;;7.00;1.00;;;;;;5102649;28;20035;-83
2023/11/12 01:33:34;;;;;;;7.53;5.50;;;7.10;1.00;;;;;;5122132;28;20020;-83
2023/11/12 01:36:01;;;;;;;6.15;5.55;;;7.10;1.00;;;;;;5123411;28;20015;-83
2023/11/12 01:38:26;;;;;;;5.55;5.05;;;7.00;1.00;;;;;;5105734;28;20027;-83
2023/11/12 01:40:54;;;;;;;5.63;4.72;;;7.00;1.00;;;;;;5121541;28;20153;-83
2023/11/12 01:43:20;;;;;;;4.88;4.22;;;7.10;1.00;;;;;;5109173;27;20027;-84
2023/11/12 01:45:46;;;;;;;4.93;4.45;;;7.10;1.00;;;;;;5108375;27;20111;-83
2023/11/12 01:48:13;;;;;;;4.00;3.70;;;7.10;1.00;;;;;;5108089;27;20073;-84
2023/11/12 01:50:42;;;;;;;5.55;4.20;;;7.00;1.00;;;;;;5110487;28;20086;-84
2023/11/12 01:53:13;;;;;;;10.35;3.42;;;7.00;1.00;;;;;;5103718;27;20517;-84
2023/11/12 01:55:39;;;;;;;3.40;3.10;;;7.00;1.00;;;;;;5126657;27;20072;-83
2023/11/12 01:58:05;;;;;;;4.03;3.72;;;7.00;1.00;;;;;;5127955;27;20055;-83
2023/11/12 02:00:33;;;;;;;4.40;4.00;;;7.00;1.00;;;;;;5124988;27;20035;-83
2023/11/12 02:03:03;;;;;;;4.00;3.47;;;7.00;1.00;;;;;;5127446;27;20102;-83
2023/11/12 02:05:29;;;;;;;3.50;3.20;;;7.00;1.00;;;;;;5127080;27;20027;-84
2023/11/12 02:07:56;;;;;;;3.65;3.35;;;7.00;1.00;;;;;;5124803;27;20076;-83
2023/11/12 02:10:22;;;;;;;3.97;3.50;;;7.00;1.00;;;;;;5105344;27;20023;-84
2023/11/12 02:12:48;;;;;;;3.58;2.70;;;7.00;1.00;;;;;;5106780;27;20412;-83
2023/11/12 02:15:15;;;;;;;3.67;2.90;;;7.00;1.00;;;;;;5125333;27;20050;-84
2023/11/12 02:17:43;;;;;;;2.80;2.60;;;7.00;1.00;;;;;;5126963;27;20072;-84
2023/11/12 02:20:16;;;;;;;2.85;2.65;;;7.00;1.00;;;;;;5093892;27;20031;-84
2023/11/12 02:22:43;;;;;;;4.90;3.03;;;7.00;1.00;;;;;;5107015;27;20038;-83
2023/11/12 02:25:09;;;;;;;2.58;2.38;;;7.00;1.00;;;;;;5126663;27;20072;-84
2023/11/12 02:27:35;;;;;;;4.88;2.60;;;7.00;1.00;;;;;;5123647;27;20027;-83
2023/11/12 02:30:01;;;;;;;3.42;3.13;;;7.00;1.00;;;;;;5126222;27;20384;-84
2023/11/12 02:32:34;;;;;;;3.50;3.20;;;7.00;1.00;;;;;;5106851;27;20050;-83
2023/11/12 02:35:02;;;;;;;3.63;3.33;;;7.00;1.00;;;;;;5123518;27;20020;-83
2023/11/12 02:37:28;;;;;;;4.28;3.40;;;7.00;1.00;;;;;;5107888;27;20052;-83
2023/11/12 02:39:54;;;;;;;4.70;3.60;;;7.10;1.00;;;;;;5106687;27;20279;-83
2023/11/12 02:42:21;;;;;;;4.65;3.63;;;7.10;1.00;;;;;;5124581;27;20019;-84
2023/11/12 02:44:51;;;;;;;4.88;3.92;;;7.10;1.00;;;;;;5126595;27;20046;-83
2023/11/12 02:47:17;;;;;;;4.80;4.10;;;7.10;1.00;;;;;;5102165;27;20065;-83
2023/11/12 02:50:35;;;;;;;4.60;4.18;;;7.10;1.00;;;;;;5102916;28;20027;-84
2023/11/12 02:53:04;;;;;;;5.60;4.85;;;7.20;1.00;;;;;;5007434;28;20104;-84
2023/11/12 02:55:33;;;;;;;6.95;5.22;;;7.10;1.00;;;;;;5004484;28;20061;-83
2023/11/12 02:58:00;;;;;;;5.07;4.60;;;7.10;1.00;;;;;;5052089;28;20047;-84
2023/11/12 03:00:29;;;;;;;8.45;5.03;;;7.20;1.00;;;;;;5104093;27;20027;-84
2023/11/12 03:03:00;;;;;;;7.43;6.22;;;7.20;1.00;;;;;;5117484;27;20015;-84
2023/11/12 03:05:27;;;;;;;8.43;6.15;;;7.10;1.00;;;;;;5135963;27;20021;-84
2023/11/12 03:07:52;;;;;;;8.10;6.30;;;7.20;1.00;;;;;;5117445;27;20024;-84
2023/11/12 03:10:18;;;;;;;6.65;6.05;;;7.10;4.60;;;;;;5114336;28;20027;-83
2023/11/12 03:12:44;;;;;;;7.95;7.18;;;7.10;8.10;;;;;;5107027;27;20122;-83
2023/11/12 03:15:11;;;;;;;10.40;8.32;;;7.10;9.40;;;;;;5122197;27;20386;-83
2023/11/12 03:17:37;;;;;;;13.55;9.18;;;7.10;16.70;;;;;;5106404;27;20702;-84
2023/11/12 03:20:04;;;;;;;11.77;9.35;;;7.20;24.10;;;;;;5127600;27;20019;-83
2023/11/12 03:22:33;;;;;;;12.40;10.07;;;7.20;28.60;;;;;;5104657;27;20494;-84
2023/11/12 03:25:04;;;;;;;13.55;10.52;;;7.20;34.80;;;;;;5107190;27;20023;-83
2023/11/12 03:27:31;;;;;;;12.30;11.00;;;7.20;37.10;;;;;;5123407;27;20020;-84
2023/11/12 03:29:56;;;;;;;17.50;11.82;;;7.30;45.70;;;;;;5101445;28;20390;-84
2023/11/12 03:32:22;;;;;;;15.80;12.55;;;7.30;48.10;;;;;;5107029;27;20026;-84
2023/11/12 03:34:53;;;;;;;13.07;11.50;;;7.30;49.40;;;;;;5121431;27;20019;-84
2023/11/12 03:37:20;;;;;;;17.20;12.07;;;7.30;52.60;;;;;;5123396;27;20380;-83
2023/11/12 03:39:50;;;;;;;15.65;12.38;;;7.40;59.10;;;;;;5122777;27;20066;-82
2023/11/12 03:42:17;;;;;;;15.82;11.75;;;7.40;58.50;;;;;;5125440;27;20015;-83
2023/11/12 03:44:47;;;;;;;14.82;12.07;;;7.40;53.40;;;;;;5122744;27;20027;-83
2023/11/12 03:47:13;;;;;;;18.67;13.40;;;7.50;51.90;;;;;;5104655;28;20082;-84
2023/11/12 03:49:40;;;;;;;18.95;12.85;;;7.50;56.10;;;;;;5122045;27;20023;-83
2023/11/12 03:52:06;;;;;;;16.30;12.73;;;7.50;54.90;;;;;;5084522;27;20054;-83
2023/11/12 03:54:32;;;;;;;18.42;13.32;;;7.60;55.70;;;;;;5105745;27;20047;-83
2023/11/12 03:56:58;;;;;;;16.83;13.00;;;7.60;55.40;;;;;;5123805;27;20615;-84
2023/11/12 03:59:24;;;;;;;19.02;14.20;;;7.60;59.20;;;;;;5123908;27;20066;-84
2023/11/12 04:01:50;;;;;;;17.13;12.88;;;7.70;60.70;;;;;;5125415;27;20062;-83
2023/11/12 04:04:15;;;;;;;21.05;13.77;;;7.70;61.60;;;;;;5106113;27;20489;-84
2023/11/12 04:06:41;;;;;;;18.67;13.88;;;7.70;65.30;;;;;;5122887;27;20055;-83
2023/11/12 04:09:08;;;;;;;19.33;15.07;;;7.80;65.20;;;;;;5122523;27;20031;-83
2023/11/12 04:11:35;;;;;;;20.23;13.65;;;7.90;65.30;;;;;;5106594;27;20019;-83
2023/11/12 04:14:04;;;;;;;18.90;12.98;;;7.90;65.80;;;;;;5121923;27;20372;-83
2023/11/12 04:16:30;;;;;;;16.00;13.10;;;7.90;65.90;;;;;;5121335;27;20538;-83
2023/11/12 04:18:56;;;;;;;18.60;14.35;;;7.90;69.20;;;;;;5122426;27;20053;-83
2023/11/12 04:21:22;;;;;;;17.15;12.70;;;7.90;70.40;;;;;;5122759;27;20083;-83
2023/11/12 04:23:48;;;;;;;16.77;13.45;;;8.00;69.90;;;;;;5124385;27;20177;-83
2023/11/12 04:26:14;;;;;;;19.58;14.23;;;8.00;73.00;;;;;;5122188;27;20559;-83
2023/11/12 04:28:39;;;;;;;19.35;14.75;;;8.00;75.30;;;;;;5122941;27;20019;-84
2023/11/12 04:31:05;;;;;;;19.77;14.90;;;8.00;78.30;;;;;;5123474;27;20375;-84
2023/11/12 04:33:31;;;;;;;20.27;14.85;;;8.00;76.50;;;;;;5124349;27;20023;-83
2023/11/12 04:35:57;;;;;;;20.60;14.80;;;8.10;81.60;;;;;;5103159;28;20640;-82
2023/11/12 04:38:22;;;;;;;19.10;14.82;;;8.10;85.00;;;;;;5123183;27;20051;-83
2023/11/12 04:40:48;;;;;;;20.85;15.73;;;8.10;90.80;;;;;;5104764;27;20022;-83
2023/11/12 04:43:17;;;;;;;23.20;15.20;;;8.10;92.30;;;;;;5124939;27;20072;-84
2023/11/12 04:45:44;;;;;;;21.67;15.55;;;8.10;91.90;;;;;;5102424;28;20058;-84
2023/11/12 04:48:11;;;;;;;20.02;14.80;;;8.10;93.20;;;;;;5123448;27;20084;-83
2023/11/12 04:50:40;;;;;;;22.45;16.80;;;8.00;94.70;;;;;;5120205;28;20019;-82
2023/11/12 04:53:06;;;;;;;20.13;15.38;;;8.10;94.80;;;;;;5124002;27;20054;-83
2023/11/12 04:55:32;;;;;;;28.58;17.20;;;8.10;95.60;;;;;;5087143;28;20063;-84
2023/11/12 04:57:58;;;;;;;26.42;16.77;;;8.20;96.30;;;;;;5120492;28;20027;-84
2023/11/12 05:00:24;;;;;;;23.33;17.02;;;8.10;96.90;;;;;;5122175;28;20089;-82
2023/11/12 05:02:51;;;;;;;29.30;18.23;;;8.20;96.50;;;;;;5124174;28;20046;-83
2023/11/12 05:05:17;;;;;;;27.10;18.48;;;8.20;98.60;;;;;;5120432;28;20030;-83
2023/11/12 05:07:43;;;;;;;22.55;17.63;;;8.20;99.90;;;;;;5123489;28;20027;-84
2023/11/12 05:10:11;;;;;;;23.38;16.95;;;8.20;99.90;;;;;;5122327;28;20476;-83
2023/11/12 05:12:37;;;;;;;27.10;18.10;;;8.20;99.90;;;;;;5121533;28;20012;-83
2023/11/12 05:15:07;;;;;;;23.75;18.23;;;8.20;99.90;;;;;;5123756;28;20015;-83
2023/11/12 05:17:33;;;;;;;25.17;18.63;;;8.20;99.90;;;;;;5123639;27;20432;-83
2023/11/12 05:19:59;;;;;;;25.65;18.15;;;8.20;99.90;;;;;;5106590;27;20027;-83
2023/11/12 05:22:24;;;;;;;24.42;17.77;;;8.30;99.90;;;;;;5099154;27;20020;-83
2023/11/12 05:24:53;;;;;;;24.98;17.35;;;8.30;99.70;;;;;;5124113;27;20019;-83
2023/11/12 05:27:19;;;;;;;23.25;17.40;;;8.30;98.50;;;;;;5127341;27;20030;-83
2023/11/12 05:29:45;;;;;;;23.15;16.55;;;8.30;99.60;;;;;;5107451;27;20028;-82
2023/11/12 05:32:11;;;;;;;26.08;17.50;;;8.30;99.90;;;;;;5125620;27;20066;-83
2023/11/12 05:34:37;;;;;;;24.67;17.00;;;8.30;99.90;;;;;;5127601;27;20023;-83
2023/11/12 05:37:03;;;;;;;21.90;16.95;;;8.30;99.90;;;;;;5106177;27;20368;-83
2023/11/12 05:39:29;;;;;;;21.23;16.30;;;8.30;99.90;;;;;;5126938;27;20027;-82
2023/11/12 05:41:54;;;;;;;22.15;16.25;;;8.30;99.90;;;;;;5126072;27;20031;-83
2023/11/12 05:44:20;;;;;;;22.88;16.35;;;8.30;99.10;;;;;;5125292;27;20038;-83
2023/11/12 05:46:46;;;;;;;23.17;17.05;;;8.30;99.90;;;;;;5109066;27;20023;-83
2023/11/12 05:49:12;;;;;;;26.67;17.23;;;8.30;99.90;;;;;;5106115;27;20055;-83
2023/11/12 05:51:38;;;;;;;22.30;16.27;;;8.30;99.00;;;;;;5125488;27;20079;-83
2023/11/12 05:54:04;;;;;;;21.02;15.88;;;8.30;98.60;;;;;;5125715;27;20023;-83
2023/11/12 05:56:31;;;;;;;24.45;16.55;;;8.30;94.30;;;;;;5127441;27;20044;-83
2023/11/12 05:58:58;;;;;;;20.10;14.68;;;8.30;95.20;;;;;;5127236;27;20110;-82
2023/11/12 06:01:24;;;;;;;19.35;14.45;;;8.40;94.20;;;;;;5124492;27;20016;-83
2023/11/12 06:03:50;;;;;;;19.25;13.75;;;8.30;90.80;;;;;;5127875;27;20019;-83
2023/11/12 06:06:16;;;;;;;15.75;11.95;;;8.30;79.70;;;;;;5124737;27;20030;-83
2023/11/12 06:08:41;;;;;;;12.65;8.88;;;8.40;54.60;;;;;;5108954;27;20027;-83
2023/11/12 06:11:07;;;;;;;10.25;7.70;;;8.40;22.90;;;;;;5120117;27;20020;-83
2023/11/12 06:13:33;;;;;;;13.07;10.23;;;8.50;1.00;;;;;;5107791;27;20515;-83
2023/11/12 06:15:59;;;;;;;13.80;10.68;;;8.50;20.30;;;;;;5122934;27;20026;-83
2023/11/12 06:18:26;;;;;;;13.40;9.52;;;8.50;32.80;;;;;;5107894;27;20382;-82
2023/11/12 06:20:52;;;;;;;9.65;8.10;;;8.50;16.50;;;;;;5125892;27;20024;-83
2023/11/12 06:23:18;;;;;;;8.48;7.00;;;8.50;1.00;;;;;;5123088;27;20031;-84
2023/11/12 06:25:43;;;;;;;10.40;8.48;;;8.50;1.00;;;;;;5106469;27;20057;-83
2023/11/12 06:28:09;;;;;;;8.48;7.38;;;8.50;2.70;;;;;;5105421;28;20505;-84
2023/11/12 06:30:35;;;;;;;7.57;6.80;;;8.50;4.70;;;;;;5107668;27;20023;-84
2023/11/12 06:33:00;;;;;;;11.07;7.75;;;8.50;2.00;;;;;;5122861;27;20023;-82
2023/11/12 06:35:26;;;;;;;10.43;8.02;;;8.50;9.00;;;;;;5105554;27;20024;-83
2023/11/12 06:37:52;;;;;;;9.95;7.82;;;8.50;5.80;;;;;;5125117;27;20031;-83
2023/11/12 06:40:18;;;;;;;9.05;7.65;;;8.50;15.50;;;;;;5107198;27;20083;-83
2023/11/12 06:42:43;;;;;;;7.85;7.05;;;8.50;18.50;;;;;;5123462;27;20413;-83
2023/11/12 06:45:10;;;;;;;9.35;7.93;;;8.50;7.40;;;;;;5107931;27;20026;-83
2023/11/12 06:47:35;;;;;;;7.93;6.75;;;8.50;12.60;;;;;;5105269;27;20034;-83
2023/11/12 06:50:06;;;;;;;10.05;7.13;;;8.50;16.20;;;;;;5104747;27;20399;-83
2023/11/12 06:52:31;;;;;;;8.40;7.43;;;8.60;12.30;;;;;;5104941;28;20486;-83
2023/11/12 06:54:59;;;;;;;7.60;6.80;;;8.60;12.70;;;;;;5108423;27;20126;-83
2023/11/12 06:57:25;;;;;;;7.90;6.78;;;8.60;6.90;;;;;;5108765;27;20023;-83
2023/11/12 06:59:50;;;;;;;7.45;6.75;;;8.60;1.00;;;;;;5101879;28;20024;-83
2023/11/12 07:02:16;;;;;;;8.90;7.35;;;8.70;1.00;;;;;;5125296;27;20376;-83
2023/11/12 07:04:42;;;;;;;8.07;6.95;;;8.70;1.00;;;;;;5104375;27;20080;-83
2023/11/12 07:07:09;;;;;;;8.35;7.50;;;8.70;1.00;;;;;;5125593;27;20035;-82
2023/11/12 07:09:35;;;;;;;8.40;6.90;;;8.80;1.00;;;;;;5128070;27;20048;-83
2023/11/12 07:12:00;;;;;;;8.35;7.38;;;8.80;1.00;;;;;;5122564;27;20027;-83
2023/11/12 07:14:26;;;;;;;7.95;7.15;;;8.80;1.00;;;;;;5104790;28;20023;-83
2023/11/12 07:16:54;;;;;;;10.55;7.28;;;8.90;1.00;;;;;;5125296;27;20054;-82
2023/11/12 07:19:20;;;;;;;11.52;7.32;;;8.90;1.00;;;;;;5104486;27;20032;-83
2023/11/12 07:21:45;;;;;;;11.07;7.60;;;8.90;4.80;;;;;;5124093;27;20032;-83
2023/11/12 07:24:11;;;;;;;13.20;8.43;;;8.90;13.60;;;;;;5123160;27;20027;-82
2023/11/12 07:26:37;;;;;;;10.55;8.05;;;8.90;43.40;;;;;;5124344;27;20015;-83
2023/11/12 07:29:03;;;;;;;8.65;7.40;;;8.90;42.20;;;;;;5122371;27;20028;-82
2023/11/12 07:31:29;;;;;;;10.70;9.13;;;8.90;30.80;;;;;;5124207;27;20023;-83
2023/11/12 07:33:55;;;;;;;9.57;8.02;;;8.90;34.90;;;;;;5123588;27;20019;-82
2023/11/12 07:36:21;;;;;;;7.57;6.88;;;9.00;38.10;;;;;;5124733;27;20538;-83
2023/11/12 07:38:47;;;;;;;9.43;7.00;;;9.00;40.40;;;;;;5121604;27;20437;-82
2023/11/12 07:41:14;;;;;;;7.68;6.90;;;9.00;39.40;;;;;;5103815;27;20390;-83
2023/11/12 07:43:39;;;;;;;7.15;6.45;;;9.00;43.50;;;;;;5123661;27;20482;-83
2023/11/12 07:46:05;;;;;;;9.05;8.15;;;9.00;51.50;;;;;;5123968;27;20104;-84
2023/11/12 07:48:32;;;;;;;8.18;7.38;;;9.00;60.80;;;;;;5122015;27;20027;-83
2023/11/12 07:50:58;;;;;;;6.95;6.28;;;9.00;59.80;;;;;;5116266;27;20107;-83
2023/11/12 07:53:25;;;;;;;6.05;5.20;;;9.10;54.90;;;;;;5105776;27;20093;-83
2023/11/12 07:55:51;;;;;;;6.97;6.03;;;9.10;38.20;;;;;;5124889;27;20062;-83
2023/11/12 07:58:18;;;;;;;5.80;5.20;;;9.10;28.00;;;;;;5106654;28;20089;-83
2023/11/12 08:00:44;;;;;;;5.32;4.90;;;9.10;21.50;;;;;;5106395;27;20023;-83
2023/11/12 08:03:10;;;;;;;10.98;5.00;;;9.20;17.60;;;;;;5104004;27;20543;-83
2023/11/12 08:05:35;;;;;;;5.57;5.00;;;9.20;7.60;;;;;;5125450;27;20106;-84
2023/11/12 08:08:01;;;;;;;9.65;4.45;;;9.20;6.00;;;;;;5103370;27;20029;-84
2023/11/12 08:10:27;;;;;;;5.85;5.10;;;9.30;3.50;;;;;;5103234;28;20035;-83
2023/11/12 08:12:53;;;;;;;5.85;4.88;;;9.30;6.90;;;;;;5121231;27;20459;-83
2023/11/12 08:15:19;;;;;;;5.43;4.93;;;9.30;10.80;;;;;;5123790;27;20023;-83
2023/11/12 08:17:45;;;;;;;4.45;4.05;;;9.30;5.60;;;;;;5122743;27;20027;-83
2023/11/12 08:20:12;;;;;;;4.53;4.13;;;9.30;1.00;;;;;;5121287;27;20019;-83
2023/11/12 08:22:38;;;;;;;5.00;4.47;;;9.40;1.00;;;;;;5124821;27;20100;-83
2023/11/12 08:25:05;;;;;;;5.20;4.70;;;9.40;7.30;;;;;;5121397;27;20023;-83
2023/11/12 08:27:31;;;;;;;5.00;4.30;;;9.40;3.60;;;;;;5104882;28;20030;-82
2023/11/12 08:29:57;;;;;;;4.75;4.22;;;9.50;7.90;;;;;;5104853;27;20390;-82
2023/11/12 08:32:22;;;;;;;5.28;4.70;;;9.40;15.70;;;;;;5121202;27;20024;-82
2023/11/12 08:34:48;;;;;;;10.77;4.75;;;9.50;21.00;;;;;;5120715;27;20371;-80
2023/11/12 08:37:14;;;;;;;6.45;5.03;;;9.50;26.60;;;;;;5123600;27;20105;-83
2023/11/12 08:39:40;;;;;;;11.32;4.18;;;9.50;30.00;;;;;;5122397;27;20024;-82
2023/11/12 08:42:06;;;;;;;4.10;3.67;;;9.50;18.80;;;;;;5103510;28;20026;-83
2023/11/12 08:44:32;;;;;;;4.47;3.53;;;9.60;14.30;;;;;;5124012;27;20102;-82
2023/11/12 08:46:58;;;;;;;5.90;3.50;;;9.60;20.30;;;;;;5106416;27;20024;-82
2023/11/12 08:49:25;;;;;;;4.03;3.35;;;9.60;21.10;;;;;;5105505;28;20108;-83
2023/11/12 08:51:51;;;;;;;9.35;3.80;;;9.70;25.20;;;;;;5118326;27;20088;-82
2023/11/12 08:54:17;;;;;;;3.72;3.33;;;9.70;17.00;;;;;;5121207;27;20023;-82
2023/11/12 08:56:42;;;;;;;4.97;4.57;;;9.70;17.70;;;;;;5117392;28;20016;-83
2023/11/12 08:59:09;;;;;;;4.20;3.80;;;9.80;11.60;;;;;;5123677;28;20038;-82
2023/11/12 09:01:35;;;;;;;4.47;3.85;;;9.80;14.50;;;;;;5119880;28;20045;-82
2023/11/12 09:04:01;;;;;;;3.85;3.55;;;9.80;31.30;;;;;;5122969;28;20031;-82
2023/11/12 09:06:27;;;;;;;4.80;4.40;;;9.80;39.80;;;;;;5101965;28;20031;-83
2023/11/12 09:08:53;;;;;;;4.10;3.70;;;9.80;36.70;;;;;;5085608;28;20016;-82
2023/11/12 09:11:18;;;;;;;5.20;4.80;;;9.80;31.90;;;;;;5121183;28;20026;-83
2023/11/12 09:13:45;;;;;;;7.65;6.53;;;9.80;14.00;;;;;;5122357;28;20027;-82
2023/11/12 09:16:14;;;;;;;9.02;7.50;;;9.90;5.40;;;;;;5104587;28;20019;-83
2023/11/12 09:18:40;;;;;;;11.45;8.27;;;9.90;1.00;;;;;;5124658;28;20039;-82
2023/11/12 09:21:06;;;;;;;8.38;7.50;;;9.90;5.10;;;;;;5102169;28;20112;-82
2023/11/12 09:23:31;;;;;;;7.70;7.00;;;10.00;19.50;;;;;;5122259;28;20021;-82
2023/11/12 09:25:57;;;;;;;11.13;9.73;;;10.10;33.70;;;;;;5122684;28;20023;-83
2023/11/12 09:28:23;;;;;;;10.93;9.07;;;10.20;15.70;;;;;;5117721;28;20498;-83
2023/11/12 09:30:48;;;;;;;12.00;9.60;;;10.20;22.10;;;;;;5105057;28;20526;-82
2023/11/12 09:33:14;;;;;;;15.38;10.40;;;10.30;34.70;;;;;;5121352;28;20020;-83
2023/11/12 09:35:40;;;;;;;13.57;10.95;;;10.40;38.30;;;;;;5122088;28;20154;-82
2023/11/12 09:38:06;;;;;;;18.50;11.18;;;10.50;23.80;;;;;;5122796;28;20030;-82
2023/11/12 09:40:32;;;;;;;13.95;10.35;;;10.50;19.40;;;;;;5102052;28;20080;-82
2023/11/12 09:42:58;;;;;;;15.27;10.73;;;10.60;1.00;;;;;;5095683;28;20027;-82
2023/11/12 09:45:28;;;;;;;12.70;11.05;;;10.70;1.00;;;;;;5104017;28;20027;-82
2023/11/12 09:47:53;;;;;;;11.57;10.38;;;10.70;1.00;;;;;;5122750;28;20065;-82
2023/11/12 09:50:24;;;;;;;16.08;11.63;;;10.80;1.00;;;;;;5120233;28;20051;-82
2023/11/12 09:52:51;;;;;;;12.27;10.65;;;10.90;6.50;;;;;;5117435;28;20493;-82
2023/11/12 09:55:18;;;;;;;13.15;10.45;;;11.00;1.00;;;;;;5119611;28;20024;-81
2023/11/12 09:57:46;;;;;;;11.73;10.18;;;11.20;3.40;;;;;;5122858;28;20447;-82
2023/11/12 10:00:16;;;;;;;12.52;9.80;;;11.30;1.00;;;;;;5101274;28;20022;-82
2023/11/12 10:02:44;;;;;;;12.57;9.57;;;11.30;1.00;;;;;;5119969;28;20031;-82
2023/11/12 10:05:11;;;;;;;14.38;10.20;;;11.30;1.00;;;;;;5107941;27;20053;-81
2023/11/12 10:07:40;;;;;;;12.65;9.73;;;11.40;1.00;;;;;;5123608;27;20593;-82
2023/11/12 10:10:26;;;;;;;11.68;9.52;;;11.40;1.00;;;;;;5107842;27;20054;-82
2023/11/12 10:12:55;;;;;;;10.55;9.45;;;11.40;1.00;;;;;;5115689;27;20243;-82
2023/11/12 10:15:28;;;;;;;12.68;10.25;;;11.40;1.00;;;;;;5108396;27;20037;-82
2023/11/12 10:17:55;;;;;;;13.30;10.73;;;11.50;1.00;;;;;;5108238;27;20039;-82
2023/11/12 10:20:26;;;;;;;16.40;11.55;;;11.40;1.00;;;;;;5123004;27;20023;-83
2023/11/12 10:22:52;;;;;;;13.38;11.73;;;11.40;1.00;;;;;;5107114;27;20176;-82
2023/11/12 10:25:36;;;;;;;15.90;10.68;;;11.40;1.00;;;;;;5122067;27;20016;-82
2023/11/12 10:28:02;;;;;;;14.10;10.13;;;11.40;1.00;;;;;;5123980;27;20075;-82
2023/11/12 10:30:28;;;;;;;11.63;10.43;;;11.40;1.00;;;;;;5116006;27;20106;-82
2023/11/12 10:33:00;;;;;;;14.93;11.55;;;11.40;1.00;;;;;;5116356;27;20178;-82
2023/11/12 10:35:28;;;;;;;11.80;10.27;;;11.30;1.00;;;;;;5117960;27;20039;-82
2023/11/12 10:38:02;;;;;;;12.00;9.63;;;11.40;1.00;;;;;;5121840;27;20016;-82
2023/11/12 10:40:31;;;;;;;12.15;9.68;;;11.40;1.00;;;;;;5118350;27;20488;-83
2023/11/12 10:43:10;;;;;;;9.65;8.18;;;11.40;1.00;;;;;;5125389;27;20023;-82
2023/11/12 10:45:38;;;;;;;10.63;8.77;;;11.40;1.00;;;;;;5121120;27;20509;-82
2023/11/12 10:48:05;;;;;;;11.40;8.57;;;11.40;1.00;;;;;;5104661;27;20034;-82
2023/11/12 10:50:32;;;;;;;8.65;7.75;;;11.40;1.00;;;;;;5100641;28;20015;-81
2023/11/12 10:52:59;;;;;;;11.00;7.88;;;11.40;1.00;;;;;;5122818;27;20495;-82
2023/11/12 10:55:25;;;;;;;8.80;7.90;;;11.50;1.00;;;;;;5106388;27;20081;-82
2023/11/12 10:57:54;;;;;;;9.95;8.05;;;11.40;1.00;;;;;;5106622;27;20027;-82
2023/11/12 11:00:22;;;;;;;9.07;7.03;;;11.50;1.00;;;;;;5122764;27;20031;-82
2023/11/12 11:02:48;;;;;;;13.18;9.48;;;11.50;1.00;;;;;;5125569;27;20019;-82
2023/11/12 11:05:18;;;;;;;9.65;8.68;;;11.50;1.00;;;;;;5105698;27;20031;-82
2023/11/12 11:07:47;;;;;;;9.52;7.75;;;11.60;1.00;;;;;;5126504;27;20027;-82
2023/11/12 11:10:13;;;;;;;8.32;7.53;;;11.60;1.00;;;;;;5119085;27;20378;-82
2023/11/12 11:12:39;;;;;;;10.20;8.18;;;11.60;1.00;;;;;;5124879;27;20105;-82
2023/11/12 11:15:42;;;;;;;9.57;8.20;;;11.60;1.00;;;;;;5123485;27;20056;-82
2023/11/12 11:18:28;;;;;;;8.52;7.55;;;11.70;1.00;;;;;;5126500;27;20117;-82
2023/11/12 11:21:03;;;;;;;8.35;7.50;;;11.70;1.00;;;;;;5103233;27;20478;-82
2023/11/12 11:23:42;;;;;;;12.80;10.35;;;11.80;1.00;;;;;;5124116;27;20024;-82
2023/11/12 11:26:29;;;;;;;10.00;7.88;;;11.80;1.00;;;;;;5089389;27;20392;-81
2023/11/12 11:29:09;;;;;;;9.68;7.45;;;11.80;1.00;;;;;;5119051;27;20031;-82
2023/11/12 11:31:41;;;;;;;7.45;6.78;;;11.80;1.00;;;;;;5125443;27;20050;-82
2023/11/12 11:34:08;;;;;;;8.18;7.38;;;11.80;1.00;;;;;;5104737;27;20110;-82
2023/11/12 11:36:34;;;;;;;15.38;11.10;;;11.80;1.00;;;;;;5104861;27;20016;-82
2023/11/12 11:39:08;;;;;;;14.43;9.85;;;11.90;1.00;;;;;;5106437;27;20118;-82
2023/11/12 11:41:34;;;;;;;11.73;10.07;;;11.90;1.00;;;;;;5118329;27;20015;-82
2023/11/12 11:44:40;;;;;;;10.40;8.95;;;11.90;1.00;;;;;;5102791;27;20474;-82
2023/11/12 11:47:23;;;;;;;9.25;7.90;;;11.90;1.00;;;;;;5069797;27;20118;-81
2023/11/12 11:49:57;;;;;;;9.63;7.95;;;11.90;1.00;;;;;;5121605;27;20570;-82
2023/11/12 11:52:28;;;;;;;8.00;7.18;;;11.90;1.00;;;;;;5104770;28;20383;-82
2023/11/12 11:54:59;;;;;;;8.35;7.47;;;12.00;1.00;;;;;;5124812;27;20015;-82
2023/11/12 11:57:26;;;;;;;7.68;6.93;;;12.00;1.00;;;;;;5085257;27;20036;-82
2023/11/12 11:59:57;;;;;;;9.07;7.70;;;12.20;1.00;;;;;;5119739;27;20054;-82
2023/11/12 12:02:24;;;;;;;7.53;6.70;;;12.20;1.00;;;;;;5120830;27;20471;-82
2023/11/12 12:04:53;;;;;;;8.10;7.30;;;12.20;1.00;;;;;;5106074;27;20037;-82
2023/11/12 12:07:24;;;;;;;9.52;8.35;;;12.20;1.00;;;;;;5106221;27;20079;-82
2023/11/12 12:09:54;;;;;;;8.18;7.38;;;12.20;1.00;;;;;;5106207;27;20027;-82
2023/11/12 12:12:21;;;;;;;7.97;7.18;;;12.20;1.00;;;;;;5084596;27;20457;-81
2023/11/12 12:14:48;;;;;;;8.35;7.55;;;12.30;1.00;;;;;;5122799;27;20106;-82
2023/11/12 12:17:14;;;;;;;9.25;7.70;;;12.20;1.00;;;;;;5105494;27;20023;-82
2023/11/12 12:19:40;;;;;;;8.95;8.07;;;12.20;1.00;;;;;;5120781;27;20076;-74
2023/11/12 12:22:06;;;;;;;9.50;8.60;;;12.10;1.00;;;;;;5102166;28;20019;-75
2023/11/12 12:24:33;;;;;;;8.68;7.88;;;12.10;1.00;;;;;;5103833;27;20023;-75
2023/11/12 12:27:04;;;;;;;9.18;8.20;;;12.10;1.00;;;;;;5103410;27;20117;-75
2023/11/12 12:29:29;;;;;;;9.25;8.02;;;12.00;1.00;;;;;;5122505;27;20027;-76
2023/11/12 12:31:56;;;;;;;9.75;8.38;;;12.10;1.00;;;;;;5105166;27;20027;-75
2023/11/12 12:34:24;;;;;;;9.85;8.05;;;12.00;1.00;;;;;;5103940;27;20022;-75
2023/11/12 12:37:07;;;;;;;8.52;7.63;;;12.00;1.00;;;;;;5103021;28;20023;-74
2023/11/12 12:39:59;;;;;;;8.00;7.18;;;12.00;1.00;;;;;;5102300;27;20432;-75
2023/11/12 12:42:26;;;;;;;8.07;7.28;;;12.10;1.00;;;;;;5118687;27;20391;-76
2023/11/12 12:44:53;;;;;;;7.55;6.85;;;12.00;1.00;;;;;;5105518;27;20037;-75
2023/11/12 12:47:35;;;;;;;7.22;6.07;;;12.10;1.00;;;;;;5121093;27;20038;-75
2023/11/12 12:50:16;;;;;;;7.00;4.93;;;12.10;99.90;;;;;;5103816;28;20034;-75
2023/11/12 12:52:52;;;;;;;7.32;6.63;;;12.10;99.90;;;;;;5119737;27;20563;-75
2023/11/12 12:55:20;;;;;;;6.55;5.95;;;12.10;99.90;;;;;;5115451;27;20063;-75